Terminal Aerodrome Forecast
Issued by NWS Topeka, KS

Home | Current Version | Previous Version | Text Only | Print | Product List | Glossary Off
Versions: 1 2 3 4 5 6 7 8 9 10 11 12 13 14 15 16

000
FTUS43 KTOP 202300
TAFTOP
TAF
KTOP 202327Z 2100/2124 18013G21KT P6SM SKC
     FM210100 17007KT P6SM SCT150
     FM211600 19012G22KT P6SM SCT150=

USA.gov is the U.S. government's official web portal to all federal, state and local government web resources and services.